sensor_id;sensor_type;location;lat;lon;timestamp;P1;durP1;ratioP1;P2;durP2;ratioP2
71303;SDS011;59091;47.446;19.148;2023-03-11T00:00:26;0.50;;;0.50;;
71303;SDS011;59091;47.446;19.148;2023-03-11T00:02:53;0.63;;;0.63;;
71303;SDS011;59091;47.446;19.148;2023-03-11T00:05:22;0.55;;;0.50;;
71303;SDS011;59091;47.446;19.148;2023-03-11T00:07:52;0.88;;;0.50;;
71303;SDS011;59091;47.446;19.148;2023-03-11T00:10:19;1.10;;;0.50;;
71303;SDS011;59091;47.446;19.148;2023-03-11T00:12:46;0.85;;;0.60;;
71303;SDS011;59091;47.446;19.148;2023-03-11T00:15:12;0.57;;;0.57;;
71303;SDS011;59091;47.446;19.148;2023-03-11T00:17:38;1.35;;;0.57;;
71303;SDS011;59091;47.446;19.148;2023-03-11T00:20:04;0.60;;;0.60;;
71303;SDS011;59091;47.446;19.148;2023-03-11T00:22:30;0.50;;;0.50;;
71303;SDS011;59091;47.446;19.148;2023-03-11T00:24:56;0.50;;;0.50;;
71303;SDS011;59091;47.446;19.148;2023-03-11T00:27:22;1.17;;;0.60;;
71303;SDS011;59091;47.446;19.148;2023-03-11T00:29:47;1.25;;;0.50;;
71303;SDS011;59091;47.446;19.148;2023-03-11T00:32:12;1.17;;;0.70;;
71303;SDS011;59091;47.446;19.148;2023-03-11T00:34:38;0.50;;;0.50;;
71303;SDS011;59091;47.446;19.148;2023-03-11T00:37:03;0.65;;;0.60;;
71303;SDS011;59091;47.446;19.148;2023-03-11T00:39:29;0.40;;;0.40;;
71303;SDS011;59091;47.446;19.148;2023-03-11T00:41:54;0.60;;;0.60;;
71303;SDS011;59091;47.446;19.148;2023-03-11T00:44:20;2.80;;;0.75;;
71303;SDS011;59091;47.446;19.148;2023-03-11T00:46:46;0.55;;;0.50;;
71303;SDS011;59091;47.446;19.148;2023-03-11T00:49:14;0.45;;;0.45;;
71303;SDS011;59091;47.446;19.148;2023-03-11T00:51:39;0.60;;;0.60;;
71303;SDS011;59091;47.446;19.148;2023-03-11T00:54:04;0.50;;;0.50;;
71303;SDS011;59091;47.446;19.148;2023-03-11T00:56:30;0.50;;;0.50;;
71303;SDS011;59091;47.446;19.148;2023-03-11T00:58:55;0.60;;;0.60;;
71303;SDS011;59091;47.446;19.148;2023-03-11T01:01:21;0.60;;;0.60;;
71303;SDS011;59091;47.446;19.148;2023-03-11T01:03:47;0.50;;;0.50;;
71303;SDS011;59091;47.446;19.148;2023-03-11T01:06:12;0.47;;;0.47;;
71303;SDS011;59091;47.446;19.148;2023-03-11T01:08:38;0.68;;;0.50;;
71303;SDS011;59091;47.446;19.148;2023-03-11T01:11:04;1.15;;;0.75;;
71303;SDS011;59091;47.446;19.148;2023-03-11T01:13:31;2.38;;;0.68;;
71303;SDS011;59091;47.446;19.148;2023-03-11T01:15:57;0.73;;;0.52;;
71303;SDS011;59091;47.446;19.148;2023-03-11T01:18:23;0.98;;;0.60;;
71303;SDS011;59091;47.446;19.148;2023-03-11T01:20:49;0.63;;;0.63;;
71303;SDS011;59091;47.446;19.148;2023-03-11T01:23:15;0.60;;;0.60;;
71303;SDS011;59091;47.446;19.148;2023-03-11T01:25:41;0.73;;;0.60;;
71303;SDS011;59091;47.446;19.148;2023-03-11T01:28:07;2.92;;;0.88;;
71303;SDS011;59091;47.446;19.148;2023-03-11T01:30:33;2.97;;;0.60;;
71303;SDS011;59091;47.446;19.148;2023-03-11T01:33:00;1.15;;;0.68;;
71303;SDS011;59091;47.446;19.148;2023-03-11T01:35:26;0.68;;;0.63;;
71303;SDS011;59091;47.446;19.148;2023-03-11T01:37:54;2.55;;;0.70;;
71303;SDS011;59091;47.446;19.148;2023-03-11T01:43:02;1.13;;;0.80;;
71303;SDS011;59091;47.446;19.148;2023-03-11T01:48:00;1.08;;;0.80;;
71303;SDS011;59091;47.446;19.148;2023-03-11T01:50:28;0.75;;;0.65;;
71303;SDS011;59091;47.446;19.148;2023-03-11T01:52:58;0.70;;;0.70;;
71303;SDS011;59091;47.446;19.148;2023-03-11T01:55:24;1.60;;;0.90;;
71303;SDS011;59091;47.446;19.148;2023-03-11T01:57:49;1.27;;;0.68;;
71303;SDS011;59091;47.446;19.148;2023-03-11T02:00:17;5.88;;;1.00;;
71303;SDS011;59091;47.446;19.148;2023-03-11T02:02:52;3.03;;;0.70;;
71303;SDS011;59091;47.446;19.148;2023-03-11T02:05:23;0.70;;;0.70;;
71303;SDS011;59091;47.446;19.148;2023-03-11T02:07:49;3.10;;;1.08;;
71303;SDS011;59091;47.446;19.148;2023-03-11T02:10:15;0.80;;;0.80;;
71303;SDS011;59091;47.446;19.148;2023-03-11T02:12:42;1.20;;;0.90;;
71303;SDS011;59091;47.446;19.148;2023-03-11T02:15:08;0.68;;;0.68;;
71303;SDS011;59091;47.446;19.148;2023-03-11T02:17:36;2.10;;;0.63;;
71303;SDS011;59091;47.446;19.148;2023-03-11T02:22:50;1.40;;;0.70;;
71303;SDS011;59091;47.446;19.148;2023-03-11T02:25:22;1.85;;;0.85;;
71303;SDS011;59091;47.446;19.148;2023-03-11T02:27:59;1.55;;;0.90;;
71303;SDS011;59091;47.446;19.148;2023-03-11T02:30:27;1.38;;;0.70;;
71303;SDS011;59091;47.446;19.148;2023-03-11T02:32:53;1.05;;;0.70;;
71303;SDS011;59091;47.446;19.148;2023-03-11T02:35:20;2.47;;;0.73;;
71303;SDS011;59091;47.446;19.148;2023-03-11T02:37:46;1.58;;;0.77;;
71303;SDS011;59091;47.446;19.148;2023-03-11T02:43:01;2.28;;;0.70;;
71303;SDS011;59091;47.446;19.148;2023-03-11T02:45:31;0.82;;;0.75;;
71303;SDS011;59091;47.446;19.148;2023-03-11T02:47:57;0.70;;;0.70;;
71303;SDS011;59091;47.446;19.148;2023-03-11T02:50:24;0.77;;;0.65;;
71303;SDS011;59091;47.446;19.148;2023-03-11T02:52:51;1.58;;;0.70;;
71303;SDS011;59091;47.446;19.148;2023-03-11T02:55:17;1.95;;;0.70;;
71303;SDS011;59091;47.446;19.148;2023-03-11T02:57:44;2.38;;;0.70;;
71303;SDS011;59091;47.446;19.148;2023-03-11T03:00:11;0.88;;;0.73;;
71303;SDS011;59091;47.446;19.148;2023-03-11T03:02:40;2.47;;;0.90;;
71303;SDS011;59091;47.446;19.148;2023-03-11T03:05:10;2.58;;;0.90;;
71303;SDS011;59091;47.446;19.148;2023-03-11T03:07:36;4.28;;;1.00;;
71303;SDS011;59091;47.446;19.148;2023-03-11T03:10:02;2.58;;;0.90;;
71303;SDS011;59091;47.446;19.148;2023-03-11T03:12:29;0.70;;;0.70;;
71303;SDS011;59091;47.446;19.148;2023-03-11T03:14:54;2.60;;;0.90;;
71303;SDS011;59091;47.446;19.148;2023-03-11T03:17:22;0.80;;;0.80;;
71303;SDS011;59091;47.446;19.148;2023-03-11T03:19:47;2.20;;;0.88;;
71303;SDS011;59091;47.446;19.148;2023-03-11T03:22:13;2.22;;;0.80;;
71303;SDS011;59091;47.446;19.148;2023-03-11T03:24:38;0.80;;;0.80;;
71303;SDS011;59091;47.446;19.148;2023-03-11T03:27:04;0.60;;;0.60;;
71303;SDS011;59091;47.446;19.148;2023-03-11T03:29:29;1.15;;;0.70;;
71303;SDS011;59091;47.446;19.148;2023-03-11T03:31:55;1.38;;;0.70;;
71303;SDS011;59091;47.446;19.148;2023-03-11T03:34:20;2.65;;;0.70;;
71303;SDS011;59091;47.446;19.148;2023-03-11T03:36:46;1.65;;;0.80;;
71303;SDS011;59091;47.446;19.148;2023-03-11T03:39:11;0.80;;;0.80;;
71303;SDS011;59091;47.446;19.148;2023-03-11T03:41:37;5.57;;;0.75;;
71303;SDS011;59091;47.446;19.148;2023-03-11T03:44:02;0.60;;;0.60;;
71303;SDS011;59091;47.446;19.148;2023-03-11T03:46:28;1.70;;;0.80;;
71303;SDS011;59091;47.446;19.148;2023-03-11T03:48:53;0.50;;;0.50;;
71303;SDS011;59091;47.446;19.148;2023-03-11T03:51:18;0.50;;;0.50;;
71303;SDS011;59091;47.446;19.148;2023-03-11T03:53:44;0.90;;;0.70;;
71303;SDS011;59091;47.446;19.148;2023-03-11T03:56:11;0.60;;;0.60;;
71303;SDS011;59091;47.446;19.148;2023-03-11T03:58:42;0.70;;;0.70;;
71303;SDS011;59091;47.446;19.148;2023-03-11T04:01:08;1.05;;;0.68;;
71303;SDS011;59091;47.446;19.148;2023-03-11T04:03:35;1.55;;;0.50;;
71303;SDS011;59091;47.446;19.148;2023-03-11T04:06:09;0.82;;;0.70;;
71303;SDS011;59091;47.446;19.148;2023-03-11T04:08:40;0.52;;;0.52;;
71303;SDS011;59091;47.446;19.148;2023-03-11T04:11:05;1.85;;;0.90;;
71303;SDS011;59091;47.446;19.148;2023-03-11T04:13:31;2.35;;;0.80;;
71303;SDS011;59091;47.446;19.148;2023-03-11T04:15:57;0.50;;;0.50;;
71303;SDS011;59091;47.446;19.148;2023-03-11T04:18:22;0.90;;;0.60;;
71303;SDS011;59091;47.446;19.148;2023-03-11T04:20:48;1.48;;;0.70;;
71303;SDS011;59091;47.446;19.148;2023-03-11T04:23:14;0.85;;;0.75;;
71303;SDS011;59091;47.446;19.148;2023-03-11T04:25:39;0.73;;;0.70;;
71303;SDS011;59091;47.446;19.148;2023-03-11T04:28:04;0.93;;;0.75;;
71303;SDS011;59091;47.446;19.148;2023-03-11T04:30:30;0.80;;;0.77;;
71303;SDS011;59091;47.446;19.148;2023-03-11T04:32:55;1.02;;;0.50;;
71303;SDS011;59091;47.446;19.148;2023-03-11T04:35:21;0.75;;;0.63;;
71303;SDS011;59091;47.446;19.148;2023-03-11T04:37:46;1.20;;;0.63;;
71303;SDS011;59091;47.446;19.148;2023-03-11T04:40:12;2.50;;;0.70;;
71303;SDS011;59091;47.446;19.148;2023-03-11T04:42:37;1.25;;;0.77;;
71303;SDS011;59091;47.446;19.148;2023-03-11T04:45:03;1.02;;;0.80;;
71303;SDS011;59091;47.446;19.148;2023-03-11T04:47:30;2.70;;;0.90;;
71303;SDS011;59091;47.446;19.148;2023-03-11T04:49:55;0.70;;;0.70;;
71303;SDS011;59091;47.446;19.148;2023-03-11T04:52:21;4.20;;;0.70;;
71303;SDS011;59091;47.446;19.148;2023-03-11T04:54:46;2.40;;;1.08;;
71303;SDS011;59091;47.446;19.148;2023-03-11T04:57:12;24.65;;;1.17;;
71303;SDS011;59091;47.446;19.148;2023-03-11T04:59:37;8.55;;;0.98;;
71303;SDS011;59091;47.446;19.148;2023-03-11T05:02:03;8.80;;;1.35;;
71303;SDS011;59091;47.446;19.148;2023-03-11T05:04:28;10.35;;;1.00;;
71303;SDS011;59091;47.446;19.148;2023-03-11T05:06:54;24.25;;;1.70;;
71303;SDS011;59091;47.446;19.148;2023-03-11T05:09:19;13.35;;;1.60;;
71303;SDS011;59091;47.446;19.148;2023-03-11T05:11:45;29.90;;;1.65;;
71303;SDS011;59091;47.446;19.148;2023-03-11T05:14:10;16.55;;;1.50;;
71303;SDS011;59091;47.446;19.148;2023-03-11T05:16:36;28.92;;;2.05;;
71303;SDS011;59091;47.446;19.148;2023-03-11T05:19:01;34.22;;;2.17;;
71303;SDS011;59091;47.446;19.148;2023-03-11T05:21:46;20.80;;;2.00;;
71303;SDS011;59091;47.446;19.148;2023-03-11T05:24:12;32.65;;;2.33;;
71303;SDS011;59091;47.446;19.148;2023-03-11T05:26:37;8.70;;;1.35;;
71303;SDS011;59091;47.446;19.148;2023-03-11T05:29:03;10.13;;;1.63;;
71303;SDS011;59091;47.446;19.148;2023-03-11T05:31:28;14.90;;;1.70;;
71303;SDS011;59091;47.446;19.148;2023-03-11T05:33:53;23.25;;;1.10;;
71303;SDS011;59091;47.446;19.148;2023-03-11T05:36:19;3.67;;;1.02;;
71303;SDS011;59091;47.446;19.148;2023-03-11T05:38:44;12.15;;;1.25;;
71303;SDS011;59091;47.446;19.148;2023-03-11T05:41:10;5.57;;;0.93;;
71303;SDS011;59091;47.446;19.148;2023-03-11T05:43:35;9.00;;;1.45;;
71303;SDS011;59091;47.446;19.148;2023-03-11T05:46:00;5.00;;;1.45;;
71303;SDS011;59091;47.446;19.148;2023-03-11T05:48:26;5.88;;;1.00;;
71303;SDS011;59091;47.446;19.148;2023-03-11T05:50:51;13.45;;;1.58;;
71303;SDS011;59091;47.446;19.148;2023-03-11T05:53:17;4.43;;;1.40;;
71303;SDS011;59091;47.446;19.148;2023-03-11T05:55:42;5.00;;;0.90;;
71303;SDS011;59091;47.446;19.148;2023-03-11T05:58:08;2.65;;;0.98;;
71303;SDS011;59091;47.446;19.148;2023-03-11T06:00:33;11.38;;;1.80;;
71303;SDS011;59091;47.446;19.148;2023-03-11T06:02:59;6.47;;;1.20;;
71303;SDS011;59091;47.446;19.148;2023-03-11T06:05:24;15.80;;;1.75;;
71303;SDS011;59091;47.446;19.148;2023-03-11T06:07:49;4.13;;;1.30;;
71303;SDS011;59091;47.446;19.148;2023-03-11T06:10:15;3.17;;;0.80;;
71303;SDS011;59091;47.446;19.148;2023-03-11T06:12:40;10.23;;;1.13;;
71303;SDS011;59091;47.446;19.148;2023-03-11T06:15:06;8.55;;;1.02;;
71303;SDS011;59091;47.446;19.148;2023-03-11T06:17:32;4.07;;;1.25;;
71303;SDS011;59091;47.446;19.148;2023-03-11T06:19:57;7.43;;;1.10;;
71303;SDS011;59091;47.446;19.148;2023-03-11T06:22:23;3.50;;;1.02;;
71303;SDS011;59091;47.446;19.148;2023-03-11T06:24:48;10.70;;;0.90;;
71303;SDS011;59091;47.446;19.148;2023-03-11T06:27:14;10.00;;;1.23;;
71303;SDS011;59091;47.446;19.148;2023-03-11T06:29:39;2.05;;;1.17;;
71303;SDS011;59091;47.446;19.148;2023-03-11T06:32:05;6.07;;;1.23;;
71303;SDS011;59091;47.446;19.148;2023-03-11T06:34:31;1.73;;;1.00;;
71303;SDS011;59091;47.446;19.148;2023-03-11T06:36:56;1.08;;;1.02;;
71303;SDS011;59091;47.446;19.148;2023-03-11T06:39:23;2.38;;;1.02;;
71303;SDS011;59091;47.446;19.148;2023-03-11T06:41:48;3.40;;;1.15;;
71303;SDS011;59091;47.446;19.148;2023-03-11T06:44:14;7.35;;;1.20;;
71303;SDS011;59091;47.446;19.148;2023-03-11T06:46:39;2.20;;;1.10;;
71303;SDS011;59091;47.446;19.148;2023-03-11T06:49:05;1.08;;;0.93;;
71303;SDS011;59091;47.446;19.148;2023-03-11T06:51:31;2.78;;;0.75;;
71303;SDS011;59091;47.446;19.148;2023-03-11T06:53:56;1.10;;;1.00;;
71303;SDS011;59091;47.446;19.148;2023-03-11T06:56:22;6.05;;;1.08;;
71303;SDS011;59091;47.446;19.148;2023-03-11T06:58:47;2.88;;;1.00;;
71303;SDS011;59091;47.446;19.148;2023-03-11T07:01:18;1.70;;;1.15;;
71303;SDS011;59091;47.446;19.148;2023-03-11T07:03:45;2.05;;;1.70;;
71303;SDS011;59091;47.446;19.148;2023-03-11T07:06:12;11.00;;;5.75;;
71303;SDS011;59091;47.446;19.148;2023-03-11T07:08:39;0.80;;;0.80;;
71303;SDS011;59091;47.446;19.148;2023-03-11T07:11:06;1.20;;;1.10;;
71303;SDS011;59091;47.446;19.148;2023-03-11T07:13:37;1.55;;;0.85;;
71303;SDS011;59091;47.446;19.148;2023-03-11T07:16:04;1.00;;;1.00;;
71303;SDS011;59091;47.446;19.148;2023-03-11T07:18:32;1.30;;;0.90;;
71303;SDS011;59091;47.446;19.148;2023-03-11T07:20:59;0.95;;;0.95;;
71303;SDS011;59091;47.446;19.148;2023-03-11T07:23:26;1.52;;;1.10;;
71303;SDS011;59091;47.446;19.148;2023-03-11T07:25:51;0.90;;;0.90;;
71303;SDS011;59091;47.446;19.148;2023-03-11T07:28:17;1.08;;;0.95;;
71303;SDS011;59091;47.446;19.148;2023-03-11T07:30:42;1.63;;;1.10;;
71303;SDS011;59091;47.446;19.148;2023-03-11T07:33:10;1.00;;;1.00;;
71303;SDS011;59091;47.446;19.148;2023-03-11T07:35:36;2.25;;;1.30;;
71303;SDS011;59091;47.446;19.148;2023-03-11T07:38:01;1.45;;;1.15;;
71303;SDS011;59091;47.446;19.148;2023-03-11T07:40:27;0.90;;;0.80;;
71303;SDS011;59091;47.446;19.148;2023-03-11T07:42:52;2.15;;;1.00;;
71303;SDS011;59091;47.446;19.148;2023-03-11T07:45:17;1.83;;;1.20;;
71303;SDS011;59091;47.446;19.148;2023-03-11T07:47:43;1.95;;;1.33;;
71303;SDS011;59091;47.446;19.148;2023-03-11T07:50:08;3.08;;;1.48;;
71303;SDS011;59091;47.446;19.148;2023-03-11T07:52:34;1.63;;;1.52;;
71303;SDS011;59091;47.446;19.148;2023-03-11T07:55:00;2.47;;;1.23;;
71303;SDS011;59091;47.446;19.148;2023-03-11T07:57:25;1.30;;;1.20;;
71303;SDS011;59091;47.446;19.148;2023-03-11T07:59:50;1.00;;;0.90;;
71303;SDS011;59091;47.446;19.148;2023-03-11T08:02:16;1.10;;;1.10;;
71303;SDS011;59091;47.446;19.148;2023-03-11T08:04:41;1.30;;;1.20;;
71303;SDS011;59091;47.446;19.148;2023-03-11T08:07:07;1.20;;;1.10;;
71303;SDS011;59091;47.446;19.148;2023-03-11T08:09:35;1.08;;;0.98;;
71303;SDS011;59091;47.446;19.148;2023-03-11T08:12:01;1.38;;;1.13;;
71303;SDS011;59091;47.446;19.148;2023-03-11T08:14:26;0.95;;;0.95;;
71303;SDS011;59091;47.446;19.148;2023-03-11T08:16:52;0.90;;;0.90;;
71303;SDS011;59091;47.446;19.148;2023-03-11T08:19:18;1.00;;;1.00;;
71303;SDS011;59091;47.446;19.148;2023-03-11T08:21:43;2.15;;;0.90;;
71303;SDS011;59091;47.446;19.148;2023-03-11T08:24:09;0.70;;;0.70;;
71303;SDS011;59091;47.446;19.148;2023-03-11T08:26:37;0.80;;;0.80;;
71303;SDS011;59091;47.446;19.148;2023-03-11T08:29:02;3.75;;;1.00;;
71303;SDS011;59091;47.446;19.148;2023-03-11T08:31:29;1.00;;;0.80;;
71303;SDS011;59091;47.446;19.148;2023-03-11T08:33:56;1.83;;;1.02;;
71303;SDS011;59091;47.446;19.148;2023-03-11T08:36:23;3.03;;;0.80;;
71303;SDS011;59091;47.446;19.148;2023-03-11T08:38:48;1.83;;;1.17;;
71303;SDS011;59091;47.446;19.148;2023-03-11T08:41:14;2.95;;;1.00;;
71303;SDS011;59091;47.446;19.148;2023-03-11T08:43:40;0.98;;;0.98;;
71303;SDS011;59091;47.446;19.148;2023-03-11T08:46:06;3.20;;;0.85;;
71303;SDS011;59091;47.446;19.148;2023-03-11T08:48:31;0.55;;;0.55;;
71303;SDS011;59091;47.446;19.148;2023-03-11T08:50:57;0.80;;;0.80;;
71303;SDS011;59091;47.446;19.148;2023-03-11T08:53:23;3.55;;;1.00;;
71303;SDS011;59091;47.446;19.148;2023-03-11T08:55:49;2.38;;;1.30;;
71303;SDS011;59091;47.446;19.148;2023-03-11T08:58:15;1.33;;;1.23;;
71303;SDS011;59091;47.446;19.148;2023-03-11T09:00:41;0.80;;;0.80;;
71303;SDS011;59091;47.446;19.148;2023-03-11T09:03:07;1.08;;;1.00;;
71303;SDS011;59091;47.446;19.148;2023-03-11T09:05:32;1.15;;;1.05;;
71303;SDS011;59091;47.446;19.148;2023-03-11T09:07:57;0.80;;;0.80;;
71303;SDS011;59091;47.446;19.148;2023-03-11T09:10:23;1.35;;;1.10;;
71303;SDS011;59091;47.446;19.148;2023-03-11T09:12:48;3.08;;;0.88;;
71303;SDS011;59091;47.446;19.148;2023-03-11T09:15:14;0.90;;;0.90;;
71303;SDS011;59091;47.446;19.148;2023-03-11T09:17:39;0.85;;;0.77;;
71303;SDS011;59091;47.446;19.148;2023-03-11T09:20:05;3.65;;;0.98;;
71303;SDS011;59091;47.446;19.148;2023-03-11T09:22:31;0.68;;;0.68;;
71303;SDS011;59091;47.446;19.148;2023-03-11T09:24:56;1.48;;;0.90;;
71303;SDS011;59091;47.446;19.148;2023-03-11T09:27:22;8.38;;;0.90;;
71303;SDS011;59091;47.446;19.148;2023-03-11T09:29:47;0.80;;;0.80;;
71303;SDS011;59091;47.446;19.148;2023-03-11T09:32:13;1.00;;;0.80;;
71303;SDS011;59091;47.446;19.148;2023-03-11T09:34:39;1.90;;;0.90;;
71303;SDS011;59091;47.446;19.148;2023-03-11T09:37:05;2.50;;;1.75;;
71303;SDS011;59091;47.446;19.148;2023-03-11T09:39:31;2.30;;;0.77;;
71303;SDS011;59091;47.446;19.148;2023-03-11T09:41:58;3.35;;;2.33;;
71303;SDS011;59091;47.446;19.148;2023-03-11T09:52:23;3.70;;;0.90;;
71303;SDS011;59091;47.446;19.148;2023-03-11T09:55:00;0.90;;;0.90;;
71303;SDS011;59091;47.446;19.148;2023-03-11T09:57:32;1.23;;;0.90;;
71303;SDS011;59091;47.446;19.148;2023-03-11T10:00:03;3.10;;;1.83;;
71303;SDS011;59091;47.446;19.148;2023-03-11T10:02:30;1.20;;;0.77;;
71303;SDS011;59091;47.446;19.148;2023-03-11T10:05:05;2.92;;;1.02;;
71303;SDS011;59091;47.446;19.148;2023-03-11T10:07:42;1.20;;;1.02;;
71303;SDS011;59091;47.446;19.148;2023-03-11T10:10:12;4.50;;;0.95;;
71303;SDS011;59091;47.446;19.148;2023-03-11T10:26:46;0.85;;;0.85;;
71303;SDS011;59091;47.446;19.148;2023-03-11T10:29:20;1.63;;;0.80;;
71303;SDS011;59091;47.446;19.148;2023-03-11T10:34:38;6.18;;;1.13;;
71303;SDS011;59091;47.446;19.148;2023-03-11T10:37:24;2.33;;;1.10;;
71303;SDS011;59091;47.446;19.148;2023-03-11T10:39:56;3.42;;;1.38;;
71303;SDS011;59091;47.446;19.148;2023-03-11T10:42:31;7.95;;;1.00;;
71303;SDS011;59091;47.446;19.148;2023-03-11T10:45:00;4.97;;;0.63;;
71303;SDS011;59091;47.446;19.148;2023-03-11T10:47:25;3.40;;;0.80;;
71303;SDS011;59091;47.446;19.148;2023-03-11T10:49:51;1.13;;;0.65;;
71303;SDS011;59091;47.446;19.148;2023-03-11T10:52:17;2.05;;;0.88;;
71303;SDS011;59091;47.446;19.148;2023-03-11T10:54:47;5.68;;;0.95;;
71303;SDS011;59091;47.446;19.148;2023-03-11T10:57:27;6.85;;;1.10;;
71303;SDS011;59091;47.446;19.148;2023-03-11T10:59:57;3.58;;;0.93;;
71303;SDS011;59091;47.446;19.148;2023-03-11T11:02:33;4.28;;;1.38;;
71303;SDS011;59091;47.446;19.148;2023-03-11T11:07:42;11.98;;;1.10;;
71303;SDS011;59091;47.446;19.148;2023-03-11T11:12:55;5.97;;;1.00;;
71303;SDS011;59091;47.446;19.148;2023-03-11T11:17:58;1.83;;;0.75;;
71303;SDS011;59091;47.446;19.148;2023-03-11T11:20:26;4.28;;;1.23;;
71303;SDS011;59091;47.446;19.148;2023-03-11T11:22:57;7.63;;;1.33;;
71303;SDS011;59091;47.446;19.148;2023-03-11T11:25:31;2.85;;;1.30;;
71303;SDS011;59091;47.446;19.148;2023-03-11T11:28:22;7.75;;;1.00;;
71303;SDS011;59091;47.446;19.148;2023-03-11T11:30:57;5.15;;;1.20;;
71303;SDS011;59091;47.446;19.148;2023-03-11T11:33:26;4.20;;;0.90;;
71303;SDS011;59091;47.446;19.148;2023-03-11T11:35:53;1.00;;;1.00;;
71303;SDS011;59091;47.446;19.148;2023-03-11T11:38:21;3.15;;;1.20;;
71303;SDS011;59091;47.446;19.148;2023-03-11T11:40:50;1.23;;;1.10;;
71303;SDS011;59091;47.446;19.148;2023-03-11T11:43:20;0.90;;;0.90;;
71303;SDS011;59091;47.446;19.148;2023-03-11T11:45:56;0.90;;;0.85;;
71303;SDS011;59091;47.446;19.148;2023-03-11T11:48:34;4.57;;;0.95;;
71303;SDS011;59091;47.446;19.148;2023-03-11T11:51:37;11.27;;;1.17;;
71303;SDS011;59091;47.446;19.148;2023-03-11T11:57:01;1.10;;;1.00;;
71303;SDS011;59091;47.446;19.148;2023-03-11T11:59:40;1.23;;;1.13;;
71303;SDS011;59091;47.446;19.148;2023-03-11T12:04:54;1.05;;;1.05;;
71303;SDS011;59091;47.446;19.148;2023-03-11T12:18:05;2.38;;;1.23;;
71303;SDS011;59091;47.446;19.148;2023-03-11T12:20:41;2.13;;;1.20;;
71303;SDS011;59091;47.446;19.148;2023-03-11T12:23:18;7.18;;;1.13;;
71303;SDS011;59091;47.446;19.148;2023-03-11T12:31:17;2.08;;;1.23;;
71303;SDS011;59091;47.446;19.148;2023-03-11T12:33:53;5.15;;;1.20;;
71303;SDS011;59091;47.446;19.148;2023-03-11T12:36:28;15.70;;;1.80;;
71303;SDS011;59091;47.446;19.148;2023-03-11T12:38:54;0.95;;;0.88;;
71303;SDS011;59091;47.446;19.148;2023-03-11T12:41:30;2.58;;;0.80;;
71303;SDS011;59091;47.446;19.148;2023-03-11T12:49:23;4.55;;;1.27;;
71303;SDS011;59091;47.446;19.148;2023-03-11T13:08:13;1.88;;;1.25;;
71303;SDS011;59091;47.446;19.148;2023-03-11T13:10:45;1.50;;;1.40;;
71303;SDS011;59091;47.446;19.148;2023-03-11T13:16:44;2.60;;;1.63;;
71303;SDS011;59091;47.446;19.148;2023-03-11T13:18:45;1.27;;;1.15;;
71303;SDS011;59091;47.446;19.148;2023-03-11T13:37:28;1.60;;;1.50;;
71303;SDS011;59091;47.446;19.148;2023-03-11T13:42:36;2.05;;;1.48;;
71303;SDS011;59091;47.446;19.148;2023-03-11T13:45:11;1.60;;;1.50;;
71303;SDS011;59091;47.446;19.148;2023-03-11T13:47:48;3.92;;;1.33;;
71303;SDS011;59091;47.446;19.148;2023-03-11T13:50:19;5.43;;;1.45;;
71303;SDS011;59091;47.446;19.148;2023-03-11T13:52:51;2.38;;;1.23;;
71303;SDS011;59091;47.446;19.148;2023-03-11T13:58:13;3.67;;;1.42;;
71303;SDS011;59091;47.446;19.148;2023-03-11T14:01:00;2.67;;;1.63;;
71303;SDS011;59091;47.446;19.148;2023-03-11T14:03:27;3.88;;;2.00;;
71303;SDS011;59091;47.446;19.148;2023-03-11T14:06:05;2.67;;;1.40;;
71303;SDS011;59091;47.446;19.148;2023-03-11T14:08:35;2.38;;;1.63;;
71303;SDS011;59091;47.446;19.148;2023-03-11T14:16:09;14.93;;;2.90;;
71303;SDS011;59091;47.446;19.148;2023-03-11T14:18:41;13.68;;;3.20;;
71303;SDS011;59091;47.446;19.148;2023-03-11T14:21:13;3.70;;;1.90;;
71303;SDS011;59091;47.446;19.148;2023-03-11T14:23:47;18.75;;;3.50;;
71303;SDS011;59091;47.446;19.148;2023-03-11T14:26:23;8.13;;;1.80;;
71303;SDS011;59091;47.446;19.148;2023-03-11T14:28:57;9.95;;;1.70;;
71303;SDS011;59091;47.446;19.148;2023-03-11T14:33:58;11.32;;;1.60;;
71303;SDS011;59091;47.446;19.148;2023-03-11T14:36:29;5.25;;;2.00;;
71303;SDS011;59091;47.446;19.148;2023-03-11T14:38:56;2.30;;;1.73;;
71303;SDS011;59091;47.446;19.148;2023-03-11T14:41:21;8.15;;;1.88;;
71303;SDS011;59091;47.446;19.148;2023-03-11T14:43:48;2.00;;;1.35;;
71303;SDS011;59091;47.446;19.148;2023-03-11T14:46:19;1.92;;;1.50;;
71303;SDS011;59091;47.446;19.148;2023-03-11T14:48:49;1.55;;;1.45;;
71303;SDS011;59091;47.446;19.148;2023-03-11T14:51:16;11.45;;;1.60;;
71303;SDS011;59091;47.446;19.148;2023-03-11T14:54:01;1.70;;;1.60;;
71303;SDS011;59091;47.446;19.148;2023-03-11T14:56:33;11.32;;;1.80;;
71303;SDS011;59091;47.446;19.148;2023-03-11T15:01:39;5.93;;;2.55;;
71303;SDS011;59091;47.446;19.148;2023-03-11T15:04:13;1.48;;;1.38;;
71303;SDS011;59091;47.446;19.148;2023-03-11T15:06:45;6.82;;;2.30;;
71303;SDS011;59091;47.446;19.148;2023-03-11T15:09:14;4.53;;;2.00;;
71303;SDS011;59091;47.446;19.148;2023-03-11T15:12:03;8.98;;;2.38;;
71303;SDS011;59091;47.446;19.148;2023-03-11T15:17:09;11.00;;;2.17;;
71303;SDS011;59091;47.446;19.148;2023-03-11T15:19:40;4.80;;;2.58;;
71303;SDS011;59091;47.446;19.148;2023-03-11T15:22:26;2.05;;;1.70;;
71303;SDS011;59091;47.446;19.148;2023-03-11T15:25:15;2.40;;;1.60;;
71303;SDS011;59091;47.446;19.148;2023-03-11T15:27:42;2.90;;;1.65;;
71303;SDS011;59091;47.446;19.148;2023-03-11T15:32:54;2.38;;;2.17;;
71303;SDS011;59091;47.446;19.148;2023-03-11T15:35:24;1.88;;;1.48;;
71303;SDS011;59091;47.446;19.148;2023-03-11T15:38:10;4.78;;;2.30;;
71303;SDS011;59091;47.446;19.148;2023-03-11T15:40:49;2.95;;;2.60;;
71303;SDS011;59091;47.446;19.148;2023-03-11T15:43:23;6.60;;;3.83;;
71303;SDS011;59091;47.446;19.148;2023-03-11T15:45:52;1.80;;;1.70;;
71303;SDS011;59091;47.446;19.148;2023-03-11T15:48:19;10.90;;;1.70;;
71303;SDS011;59091;47.446;19.148;2023-03-11T15:50:46;4.80;;;1.98;;
71303;SDS011;59091;47.446;19.148;2023-03-11T15:53:16;1.75;;;1.65;;
71303;SDS011;59091;47.446;19.148;2023-03-11T15:55:44;7.25;;;2.10;;
71303;SDS011;59091;47.446;19.148;2023-03-11T15:58:11;4.70;;;2.35;;
71303;SDS011;59091;47.446;19.148;2023-03-11T16:00:42;2.08;;;1.88;;
71303;SDS011;59091;47.446;19.148;2023-03-11T16:03:11;2.08;;;1.88;;
71303;SDS011;59091;47.446;19.148;2023-03-11T16:05:36;2.63;;;1.90;;
71303;SDS011;59091;47.446;19.148;2023-03-11T16:08:02;2.22;;;2.03;;
71303;SDS011;59091;47.446;19.148;2023-03-11T16:10:27;2.30;;;2.10;;
71303;SDS011;59091;47.446;19.148;2023-03-11T16:12:53;1.83;;;1.60;;
71303;SDS011;59091;47.446;19.148;2023-03-11T16:15:26;1.75;;;1.65;;
71303;SDS011;59091;47.446;19.148;2023-03-11T16:17:54;3.60;;;1.75;;
71303;SDS011;59091;47.446;19.148;2023-03-11T16:20:22;3.22;;;1.95;;
71303;SDS011;59091;47.446;19.148;2023-03-11T16:22:50;1.85;;;1.75;;
71303;SDS011;59091;47.446;19.148;2023-03-11T16:25:25;2.17;;;1.58;;
71303;SDS011;59091;47.446;19.148;2023-03-11T16:28:02;5.80;;;1.77;;
71303;SDS011;59091;47.446;19.148;2023-03-11T16:30:28;1.70;;;1.55;;
71303;SDS011;59091;47.446;19.148;2023-03-11T16:32:55;1.65;;;1.40;;
71303;SDS011;59091;47.446;19.148;2023-03-11T16:35:21;3.10;;;1.70;;
71303;SDS011;59091;47.446;19.148;2023-03-11T16:37:46;3.47;;;2.05;;
71303;SDS011;59091;47.446;19.148;2023-03-11T16:40:13;2.08;;;1.75;;
71303;SDS011;59091;47.446;19.148;2023-03-11T16:42:44;1.60;;;1.50;;
71303;SDS011;59091;47.446;19.148;2023-03-11T16:45:11;4.88;;;2.25;;